Time;durP1;ratioP1;P1;durP2;ratioP2;P2;SDS_P1;SDS_P2;PMS_P1;PMS_P2;Temp;Humidity;BMP_temperature;BMP_pressure;BME280_temperature;BME280_humidity;BME280_pressure;Samples;Min_cycle;Max_cycle;Signal;HPM_P1;HPM_P2
2022/06/03 00:02:57;;;;;;;3.13;1.80;;;16.70;59.30;;;;;;5088228;28;20209;-58
2022/06/03 00:06:00;;;;;;;2.20;1.70;;;16.70;59.30;;;;;;5088522;28;20194;-60
2022/06/03 00:09:12;;;;;;;1.83;1.45;;;16.70;59.30;;;;;;5087830;28;20200;-59
2022/06/03 00:12:02;;;;;;;2.00;1.48;;;16.70;59.60;;;;;;5087613;28;20225;-58
2022/06/03 00:15:02;;;;;;;1.88;1.20;;;16.70;59.50;;;;;;5090201;28;20225;-58
2022/06/03 00:17:50;;;;;;;1.58;1.42;;;16.70;59.50;;;;;;5091602;28;20225;-58
2022/06/03 00:20:39;;;;;;;2.55;1.50;;;16.70;59.50;;;;;;5091253;28;20654;-58
2022/06/03 00:23:44;;;;;;;2.38;1.50;;;16.70;59.50;;;;;;5093835;28;20218;-57
2022/06/03 00:26:44;;;;;;;1.45;1.33;;;16.70;59.50;;;;;;5047822;28;20221;-59
2022/06/03 00:29:30;;;;;;;2.95;1.40;;;16.70;59.60;;;;;;5088205;28;20197;-58
2022/06/03 00:32:23;;;;;;;2.95;2.03;;;16.80;60.20;;;;;;5086926;28;20642;-59
2022/06/03 00:35:24;;;;;;;1.98;1.67;;;16.80;60.40;;;;;;5091369;28;20221;-59
2022/06/03 00:38:00;;;;;;;4.72;2.13;;;16.80;60.20;;;;;;5072440;28;20229;-59
2022/06/03 00:40:51;;;;;;;2.55;1.70;;;16.80;60.50;;;;;;5090660;28;20197;-61
2022/06/03 00:43:54;;;;;;;2.80;1.75;;;16.80;60.60;;;;;;5090449;28;20186;-60
2022/06/03 00:46:56;;;;;;;2.42;1.50;;;16.80;60.30;;;;;;5090812;28;20216;-60
2022/06/03 00:50:02;;;;;;;2.22;1.70;;;16.90;60.20;;;;;;5091550;28;20205;-59
2022/06/03 00:53:14;;;;;;;2.85;1.60;;;16.90;60.80;;;;;;5090973;28;20206;-60
2022/06/03 00:56:12;;;;;;;2.28;1.77;;;16.90;59.90;;;;;;5090488;28;20237;-58
2022/06/03 00:59:01;;;;;;;2.35;1.60;;;16.90;59.90;;;;;;5014112;28;20200;-59
2022/06/03 01:01:36;;;;;;;1.60;1.30;;;16.90;59.90;;;;;;5081470;28;20209;-58
2022/06/03 01:04:37;;;;;;;1.60;1.50;;;16.90;60.10;;;;;;5090294;28;20194;-58
2022/06/03 01:07:15;;;;;;;2.50;1.60;;;16.90;60.10;;;;;;5090471;28;20572;-58
2022/06/03 01:10:02;;;;;;;1.60;1.30;;;16.90;60.10;;;;;;5089903;28;20277;-59
2022/06/03 01:13:01;;;;;;;1.80;1.30;;;16.90;60.00;;;;;;5090067;28;20186;-59
2022/06/03 01:15:41;;;;;;;2.45;1.60;;;16.90;60.10;;;;;;5087873;28;20217;-59
2022/06/03 01:18:28;;;;;;;3.22;1.60;;;17.00;60.00;;;;;;5090602;28;20205;-59
2022/06/03 01:21:25;;;;;;;3.40;1.30;;;17.00;59.90;;;;;;5089992;28;20218;-58
2022/06/03 01:24:31;;;;;;;2.13;1.40;;;16.90;59.70;;;;;;5089997;28;20195;-57
2022/06/03 01:27:31;;;;;;;1.83;1.23;;;17.00;59.80;;;;;;5070210;28;20217;-59
2022/06/03 01:30:24;;;;;;;3.55;1.88;;;17.00;59.70;;;;;;5090395;28;20190;-57
2022/06/03 01:33:24;;;;;;;2.70;1.70;;;17.00;59.70;;;;;;5090124;28;20186;-58
2022/06/03 01:36:45;;;;;;;2.28;1.30;;;17.00;59.60;;;;;;5056189;28;20241;-59
2022/06/03 01:39:37;;;;;;;1.60;1.40;;;17.00;59.60;;;;;;5088661;28;20203;-59
2022/06/03 01:42:55;;;;;;;1.92;1.17;;;17.00;59.50;;;;;;5089990;28;20217;-57
2022/06/03 01:45:54;;;;;;;1.70;1.13;;;17.00;59.50;;;;;;5089475;28;20187;-57
2022/06/03 01:48:50;;;;;;;1.40;1.23;;;17.00;59.40;;;;;;5089903;28;20190;-58
2022/06/03 01:51:51;;;;;;;2.22;1.50;;;17.00;59.50;;;;;;5088898;28;20190;-57
2022/06/03 01:55:05;;;;;;;2.55;1.45;;;17.00;59.50;;;;;;5089983;28;20200;-59
2022/06/03 01:57:59;;;;;;;2.47;1.60;;;17.00;59.50;;;;;;5076881;28;20241;-58
2022/06/03 02:00:35;;;;;;;1.92;1.40;;;17.00;59.40;;;;;;5089388;28;20199;-58
2022/06/03 02:03:44;;;;;;;1.30;1.20;;;17.00;59.40;;;;;;5089840;28;20267;-58
2022/06/03 02:06:49;;;;;;;2.13;1.40;;;17.00;59.40;;;;;;5064062;28;20709;-58
2022/06/03 02:09:47;;;;;;;1.80;1.13;;;17.00;59.30;;;;;;5089568;28;20559;-59
2022/06/03 02:12:39;;;;;;;1.88;1.30;;;17.10;59.30;;;;;;5089558;28;20194;-58
2022/06/03 02:15:38;;;;;;;2.08;1.15;;;17.00;59.20;;;;;;5089967;28;20847;-57
2022/06/03 02:18:42;;;;;;;2.90;1.45;;;17.00;59.20;;;;;;5089189;28;20675;-58
2022/06/03 02:21:34;;;;;;;2.67;1.50;;;17.00;59.20;;;;;;5089582;28;20654;-57
2022/06/03 02:24:43;;;;;;;1.83;1.40;;;17.00;59.20;;;;;;5086866;28;20190;-59
2022/06/03 02:27:42;;;;;;;1.30;1.20;;;17.00;59.20;;;;;;5089157;28;20729;-58
2022/06/03 02:30:59;;;;;;;2.45;1.33;;;17.00;59.10;;;;;;5089157;28;20197;-58
2022/06/03 02:33:52;;;;;;;1.85;1.65;;;17.00;59.10;;;;;;5026025;28;20255;-56
2022/06/03 02:37:08;;;;;;;2.15;1.20;;;17.00;59.10;;;;;;5086047;28;20585;-58
2022/06/03 02:40:01;;;;;;;1.67;1.38;;;17.00;59.40;;;;;;5089000;28;20202;-59
2022/06/03 02:42:54;;;;;;;1.17;1.08;;;17.10;59.40;;;;;;5087796;28;20190;-58
2022/06/03 02:45:56;;;;;;;1.75;1.52;;;17.00;59.40;;;;;;5085820;28;20190;-59
2022/06/03 02:48:52;;;;;;;1.92;1.42;;;17.10;59.40;;;;;;5067939;28;20200;-59
2022/06/03 02:51:32;;;;;;;2.30;1.50;;;17.10;59.30;;;;;;5088500;28;20588;-57
2022/06/03 02:54:46;;;;;;;2.08;1.27;;;17.10;59.20;;;;;;5088956;28;20197;-57
2022/06/03 02:57:51;;;;;;;1.75;1.20;;;17.10;59.20;;;;;;5085248;28;20222;-58
2022/06/03 03:00:29;;;;;;;2.10;1.33;;;17.10;59.20;;;;;;5088662;28;20197;-59
2022/06/03 03:03:47;;;;;;;1.55;1.13;;;17.10;59.10;;;;;;5088607;28;20217;-58
2022/06/03 03:06:56;;;;;;;2.08;0.93;;;17.10;59.10;;;;;;5088049;28;20221;-57
2022/06/03 03:09:49;;;;;;;1.80;1.20;;;17.10;59.10;;;;;;5088413;28;20638;-59
2022/06/03 03:12:51;;;;;;;1.75;1.20;;;17.10;59.10;;;;;;5088008;28;20186;-58
2022/06/03 03:15:52;;;;;;;1.88;1.33;;;17.10;59.10;;;;;;5088610;28;20210;-59
2022/06/03 03:18:59;;;;;;;2.22;1.40;;;17.10;59.10;;;;;;5083500;28;20193;-59
2022/06/03 03:22:10;;;;;;;2.63;1.33;;;17.10;59.10;;;;;;5087758;28;20221;-56
2022/06/03 03:25:11;;;;;;;1.60;1.17;;;17.10;59.10;;;;;;5088003;28;20566;-56
2022/06/03 03:28:07;;;;;;;2.25;1.35;;;17.10;59.10;;;;;;5088292;28;20241;-57
2022/06/03 03:30:42;;;;;;;1.85;1.27;;;17.10;59.10;;;;;;5088081;28;20198;-57
2022/06/03 03:33:37;;;;;;;2.30;1.30;;;17.20;59.10;;;;;;5088399;28;20201;-57
2022/06/03 03:36:47;;;;;;;1.85;1.20;;;17.20;59.20;;;;;;5087907;28;20229;-58
2022/06/03 03:39:59;;;;;;;2.40;1.40;;;17.20;59.10;;;;;;5088226;28;20206;-56
2022/06/03 03:42:57;;;;;;;2.90;1.20;;;17.20;59.10;;;;;;5087234;28;20204;-58
2022/06/03 03:46:15;;;;;;;1.48;1.17;;;17.20;59.00;;;;;;5087409;28;20197;-59
2022/06/03 03:49:16;;;;;;;1.98;1.30;;;17.20;59.00;;;;;;5087041;28;20198;-58
2022/06/03 03:52:13;;;;;;;1.20;1.10;;;17.20;59.00;;;;;;5088254;28;20215;-58
2022/06/03 03:55:29;;;;;;;1.65;1.08;;;17.20;58.90;;;;;;5087995;28;20198;-58
2022/06/03 03:58:35;;;;;;;1.65;1.17;;;17.20;58.90;;;;;;5072273;28;20202;-60
2022/06/03 04:01:47;;;;;;;2.30;1.13;;;17.20;58.90;;;;;;5092224;28;20684;-58
2022/06/03 04:05:14;;;;;;;2.65;1.33;;;17.20;58.90;;;;;;5077479;28;20198;-59
2022/06/03 04:08:15;;;;;;;1.65;1.23;;;17.20;59.00;;;;;;5009587;28;20216;-59
2022/06/03 04:11:11;;;;;;;3.78;1.17;;;17.30;59.00;;;;;;5004955;28;20254;-58
2022/06/03 04:14:12;;;;;;;3.13;1.50;;;17.30;59.00;;;;;;5082418;28;20186;-59
2022/06/03 04:17:11;;;;;;;1.88;1.08;;;17.20;59.50;;;;;;5091958;28;20225;-59
2022/06/03 04:20:17;;;;;;;1.95;1.60;;;17.30;59.00;;;;;;5091776;28;20190;-58
2022/06/03 04:23:09;;;;;;;2.40;1.23;;;17.20;58.90;;;;;;5091528;28;20198;-58
2022/06/03 04:26:20;;;;;;;1.65;1.40;;;17.30;58.90;;;;;;5091065;28;20592;-59
2022/06/03 04:29:34;;;;;;;1.95;1.35;;;17.30;58.90;;;;;;5091799;28;20657;-59
2022/06/03 04:32:45;;;;;;;2.25;1.40;;;17.20;59.40;;;;;;5091367;28;20649;-58
2022/06/03 04:35:57;;;;;;;2.03;1.33;;;17.30;58.80;;;;;;5089799;28;20195;-57
2022/06/03 04:39:00;;;;;;;2.15;1.52;;;17.30;58.80;;;;;;5091821;28;20602;-58
2022/06/03 04:42:03;;;;;;;1.65;1.50;;;17.20;58.70;;;;;;5090912;28;20225;-58
2022/06/03 04:45:10;;;;;;;2.58;1.52;;;17.30;58.80;;;;;;5088712;28;20250;-57
2022/06/03 04:48:12;;;;;;;2.10;1.40;;;17.20;58.70;;;;;;5076837;28;20214;-57
2022/06/03 04:51:10;;;;;;;2.70;1.60;;;17.30;58.70;;;;;;5089870;28;20201;-58
2022/06/03 04:54:17;;;;;;;1.90;1.45;;;17.20;58.70;;;;;;5090628;28;20672;-58
2022/06/03 04:57:22;;;;;;;2.22;1.42;;;17.20;58.70;;;;;;5090521;28;20221;-56
2022/06/03 05:00:26;;;;;;;2.25;1.52;;;17.20;58.70;;;;;;5091209;28;20198;-58
2022/06/03 05:03:37;;;;;;;2.70;1.80;;;17.20;58.70;;;;;;5093864;28;20206;-57
2022/06/03 05:07:01;;;;;;;2.00;1.40;;;17.20;58.70;;;;;;5060050;28;20226;-56
2022/06/03 05:10:14;;;;;;;3.22;1.77;;;17.20;58.70;;;;;;5093335;28;20198;-57
2022/06/03 05:13:17;;;;;;;2.35;1.75;;;17.20;58.60;;;;;;5093707;28;20193;-58
2022/06/03 05:16:19;;;;;;;2.08;1.70;;;17.20;58.60;;;;;;5079942;28;20224;-57
2022/06/03 05:19:32;;;;;;;2.83;1.45;;;17.20;58.60;;;;;;5093443;28;20194;-58
2022/06/03 05:22:54;;;;;;;1.90;1.35;;;17.20;58.60;;;;;;5093529;28;20201;-57
2022/06/03 05:25:42;;;;;;;1.50;1.40;;;17.20;58.60;;;;;;5031275;28;20681;-58
2022/06/03 05:28:53;;;;;;;1.98;1.45;;;17.20;59.20;;;;;;5093535;28;20198;-57
2022/06/03 05:32:10;;;;;;;2.72;1.58;;;17.20;58.60;;;;;;5080353;28;20199;-59
2022/06/03 05:35:14;;;;;;;2.08;1.80;;;17.20;58.70;;;;;;5073061;28;20650;-59
2022/06/03 05:38:18;;;;;;;1.80;1.42;;;17.20;58.60;;;;;;5072780;28;20235;-57
2022/06/03 05:41:00;;;;;;;2.65;1.40;;;17.20;58.60;;;;;;5073093;28;20194;-58
2022/06/03 05:44:01;;;;;;;2.10;1.70;;;17.10;58.60;;;;;;5072952;28;20676;-57
2022/06/03 05:46:43;;;;;;;2.55;1.70;;;17.20;58.70;;;;;;5084801;28;20226;-57
2022/06/03 05:49:33;;;;;;;2.05;1.38;;;17.10;58.60;;;;;;5090161;28;20561;-58
2022/06/03 05:52:30;;;;;;;2.17;1.77;;;17.10;58.60;;;;;;5092866;28;20190;-58
2022/06/03 05:55:18;;;;;;;2.83;1.73;;;17.10;58.80;;;;;;5092837;28;20563;-58
2022/06/03 05:58:08;;;;;;;2.85;1.95;;;17.10;58.80;;;;;;5092706;28;20226;-59
2022/06/03 06:00:57;;;;;;;1.77;1.50;;;17.10;58.70;;;;;;5087316;28;20195;-58
2022/06/03 06:03:41;;;;;;;2.50;1.98;;;17.10;58.70;;;;;;5072498;28;20206;-57
2022/06/03 06:06:25;;;;;;;2.15;1.70;;;17.10;58.70;;;;;;5072589;28;20219;-58
2022/06/03 06:09:07;;;;;;;2.88;1.80;;;17.10;58.70;;;;;;5072420;28;20248;-59
2022/06/03 06:11:51;;;;;;;2.95;1.95;;;17.10;58.70;;;;;;5072584;28;20269;-58
2022/06/03 06:14:41;;;;;;;2.85;1.63;;;17.10;58.60;;;;;;5072410;28;20199;-58
2022/06/03 06:17:34;;;;;;;2.75;1.70;;;17.10;58.60;;;;;;5088511;28;20226;-59
2022/06/03 06:20:14;;;;;;;2.40;1.95;;;17.10;58.60;;;;;;5091746;28;20198;-58
2022/06/03 06:22:48;;;;;;;3.33;1.98;;;17.10;58.60;;;;;;5092195;28;20604;-58
2022/06/03 06:25:25;;;;;;;2.78;2.13;;;17.00;58.50;;;;;;5092064;28;20190;-57
2022/06/03 06:28:05;;;;;;;2.95;1.80;;;17.00;58.60;;;;;;5091870;28;20218;-57
2022/06/03 06:31:00;;;;;;;3.15;2.00;;;17.10;58.60;;;;;;5088895;28;20209;-57
2022/06/03 06:33:50;;;;;;;3.20;1.90;;;17.00;58.50;;;;;;5071919;28;20320;-57
2022/06/03 06:36:50;;;;;;;3.47;2.03;;;17.00;58.50;;;;;;5072128;28;20223;-57
2022/06/03 06:39:38;;;;;;;4.28;2.03;;;17.00;58.60;;;;;;5042028;28;20194;-57
2022/06/03 06:42:19;;;;;;;2.92;2.00;;;17.00;58.70;;;;;;5072068;28;20567;-56
2022/06/03 06:45:03;;;;;;;3.67;2.22;;;17.00;58.70;;;;;;5071751;28;20202;-56
2022/06/03 06:47:37;;;;;;;4.30;2.22;;;17.00;58.70;;;;;;5088806;28;20217;-57
2022/06/03 06:50:17;;;;;;;2.30;2.08;;;17.00;58.70;;;;;;5092364;28;20209;-58
2022/06/03 06:53:03;;;;;;;2.90;2.17;;;17.00;58.60;;;;;;5091690;28;20194;-55
2022/06/03 06:55:51;;;;;;;3.22;1.90;;;17.00;58.60;;;;;;5091864;28;20562;-56
2022/06/03 06:58:34;;;;;;;2.42;1.90;;;16.90;58.50;;;;;;5081965;28;20194;-57
2022/06/03 07:01:08;;;;;;;3.22;2.03;;;16.90;58.50;;;;;;5076125;28;20205;-56
2022/06/03 07:03:56;;;;;;;2.67;2.17;;;16.90;58.70;;;;;;5091637;28;20229;-57
2022/06/03 07:06:34;;;;;;;2.88;1.80;;;16.90;58.90;;;;;;5091580;28;20233;-55
2022/06/03 07:09:25;;;;;;;1.80;1.52;;;16.90;58.80;;;;;;5091562;28;20198;-56
2022/06/03 07:12:01;;;;;;;2.65;1.98;;;16.90;58.70;;;;;;5075739;28;20201;-56
2022/06/03 07:14:34;;;;;;;3.65;1.90;;;16.80;58.70;;;;;;5091332;28;20729;-57
2022/06/03 07:20:08;;;;;;;2.58;1.90;;;16.80;58.70;;;;;;5071450;28;20681;-57
2022/06/03 07:22:46;;;;;;;2.35;1.95;;;16.80;58.70;;;;;;5070958;28;20199;-56
2022/06/03 07:25:26;;;;;;;3.35;1.70;;;16.80;58.60;;;;;;5071500;28;20609;-57
2022/06/03 07:28:01;;;;;;;2.08;1.67;;;16.80;58.60;;;;;;5075578;28;20217;-57
2022/06/03 07:30:40;;;;;;;2.58;2.30;;;16.80;58.60;;;;;;5084075;28;20193;-59
2022/06/03 07:33:16;;;;;;;3.30;2.20;;;16.80;58.60;;;;;;5075398;28;20207;-58
2022/06/03 07:35:52;;;;;;;2.25;1.70;;;16.80;58.60;;;;;;5074747;28;20274;-58
2022/06/03 07:38:28;;;;;;;3.20;2.00;;;16.70;58.60;;;;;;5075123;28;20190;-57
2022/06/03 07:41:05;;;;;;;3.90;1.90;;;16.70;58.60;;;;;;5075592;28;20209;-57
2022/06/03 07:43:43;;;;;;;2.30;2.10;;;16.70;58.50;;;;;;5075609;28;20234;-57
2022/06/03 07:46:20;;;;;;;2.83;1.95;;;16.70;58.50;;;;;;5076204;28;20214;-57
2022/06/03 07:48:53;;;;;;;2.42;2.03;;;16.70;58.50;;;;;;5074733;28;20198;-56
2022/06/03 07:51:31;;;;;;;2.15;1.95;;;16.60;58.50;;;;;;5075114;28;20198;-57
2022/06/03 07:54:09;;;;;;;2.67;1.98;;;16.70;59.10;;;;;;5075056;28;20647;-56
2022/06/03 07:56:42;;;;;;;3.28;1.90;;;16.60;58.40;;;;;;5074404;28;20239;-56
2022/06/03 07:59:19;;;;;;;3.80;1.90;;;16.60;58.40;;;;;;5074944;28;20195;-59
2022/06/03 08:02:02;;;;;;;3.08;2.22;;;16.60;58.50;;;;;;5082954;28;20202;-57
2022/06/03 08:04:36;;;;;;;1.95;1.67;;;16.60;58.40;;;;;;5095744;28;20194;-56
2022/06/03 08:12:59;;;;;;;3.15;1.83;;;16.50;58.40;;;;;;5095271;28;20193;-56
2022/06/03 08:15:34;;;;;;;2.80;2.08;;;16.50;58.40;;;;;;5095339;28;20221;-57
2022/06/03 08:18:06;;;;;;;3.22;1.88;;;16.50;58.40;;;;;;5080221;28;20256;-56
2022/06/03 08:20:48;;;;;;;2.42;1.88;;;16.50;58.40;;;;;;5085523;28;20199;-55
2022/06/03 08:23:23;;;;;;;2.22;1.70;;;16.40;58.40;;;;;;5094538;28;20252;-57
2022/06/03 08:25:57;;;;;;;2.42;1.73;;;16.40;59.00;;;;;;5094726;28;20233;-57
2022/06/03 08:28:31;;;;;;;2.30;1.88;;;16.40;58.40;;;;;;5094751;28;20197;-57
2022/06/03 08:31:06;;;;;;;2.78;2.20;;;16.40;58.40;;;;;;5093599;28;20271;-57
2022/06/03 08:33:43;;;;;;;3.13;2.03;;;16.40;58.40;;;;;;5074205;28;20199;-56
2022/06/03 08:36:19;;;;;;;3.15;1.85;;;16.40;58.40;;;;;;5074005;28;20218;-57
2022/06/03 08:38:51;;;;;;;3.70;2.08;;;16.40;58.40;;;;;;5073812;28;20589;-57
2022/06/03 08:41:47;;;;;;;3.13;1.98;;;16.40;58.40;;;;;;5073955;28;20198;-56
2022/06/03 08:44:32;;;;;;;2.65;2.08;;;16.30;58.30;;;;;;5085408;28;20194;-57
2022/06/03 08:47:12;;;;;;;3.42;2.10;;;16.30;58.30;;;;;;5092890;28;20226;-55
2022/06/03 08:49:54;;;;;;;2.55;1.85;;;16.30;58.30;;;;;;5094135;28;20650;-55
2022/06/03 08:52:34;;;;;;;1.98;1.67;;;16.30;58.30;;;;;;5093969;28;20719;-55
2022/06/03 08:55:10;;;;;;;2.13;1.88;;;16.30;58.30;;;;;;5094078;28;20198;-57
2022/06/03 08:57:47;;;;;;;1.83;1.63;;;16.30;58.30;;;;;;5094038;28;20314;-55
2022/06/03 09:00:20;;;;;;;2.35;1.70;;;16.30;58.30;;;;;;5093765;28;20198;-56
2022/06/03 09:02:58;;;;;;;2.90;1.85;;;16.30;58.40;;;;;;5080722;28;20207;-56
2022/06/03 09:05:35;;;;;;;2.50;1.80;;;16.20;58.30;;;;;;5074190;28;20527;-57
2022/06/03 09:08:13;;;;;;;1.98;1.73;;;16.20;58.30;;;;;;5073557;28;20198;-55
2022/06/03 09:10:50;;;;;;;3.03;1.90;;;16.20;58.30;;;;;;5073299;28;20674;-54
2022/06/03 09:13:27;;;;;;;3.25;2.00;;;16.20;58.30;;;;;;5073736;28;20234;-55
2022/06/03 09:15:58;;;;;;;3.60;2.05;;;16.20;58.30;;;;;;5073413;28;20625;-57
2022/06/03 09:18:33;;;;;;;2.20;1.70;;;16.20;58.30;;;;;;5091204;28;20815;-57
2022/06/03 09:21:08;;;;;;;2.22;1.90;;;16.10;58.20;;;;;;5093780;28;20204;-55
2022/06/03 09:23:46;;;;;;;2.50;1.90;;;16.10;58.30;;;;;;5093452;28;20193;-55
2022/06/03 09:26:30;;;;;;;2.38;2.00;;;16.10;58.20;;;;;;5093148;28;20218;-55
2022/06/03 09:29:02;;;;;;;2.67;1.95;;;16.10;58.20;;;;;;5093444;28;20200;-56
2022/06/03 09:31:33;;;;;;;2.65;1.80;;;16.10;58.20;;;;;;5091644;28;20228;-57
2022/06/03 09:34:05;;;;;;;2.10;1.80;;;16.10;58.20;;;;;;5072977;28;20217;-57
2022/06/03 09:36:37;;;;;;;3.55;1.95;;;16.00;58.20;;;;;;5072507;28;20214;-56
2022/06/03 09:39:13;;;;;;;5.15;1.98;;;16.10;58.80;;;;;;5074992;28;20301;-54
2022/06/03 09:41:45;;;;;;;2.45;1.90;;;16.00;58.90;;;;;;5080822;28;20206;-56
2022/06/03 09:44:20;;;;;;;3.88;2.40;;;16.00;59.00;;;;;;5090201;28;20664;-56
2022/06/03 09:46:55;;;;;;;2.83;1.73;;;16.00;59.00;;;;;;5088771;28;20214;-56
2022/06/03 09:49:27;;;;;;;3.55;2.00;;;16.00;59.10;;;;;;5089346;28;20190;-58
2022/06/03 09:51:59;;;;;;;2.33;1.77;;;16.00;59.30;;;;;;5090001;28;20657;-58
2022/06/03 09:54:33;;;;;;;4.07;2.17;;;16.00;60.00;;;;;;5089976;28;20217;-58
2022/06/03 09:57:13;;;;;;;4.65;2.20;;;16.00;59.50;;;;;;5089353;28;20218;-58
2022/06/03 09:59:57;;;;;;;4.28;1.88;;;16.00;59.60;;;;;;5089493;28;20205;-57
2022/06/03 10:02:29;;;;;;;4.18;2.63;;;16.00;59.50;;;;;;5089374;28;20225;-57
2022/06/03 10:05:02;;;;;;;3.25;2.28;;;16.00;59.50;;;;;;5090366;28;20210;-56
2022/06/03 10:07:33;;;;;;;3.58;2.30;;;16.00;59.60;;;;;;5089602;28;20720;-58
2022/06/03 10:12:56;;;;;;;3.33;2.20;;;15.90;59.50;;;;;;5089900;28;20573;-58
2022/06/03 10:15:41;;;;;;;4.65;2.70;;;16.00;59.50;;;;;;5089976;28;20202;-57
2022/06/03 10:18:31;;;;;;;3.97;2.72;;;15.90;59.40;;;;;;5089360;28;20278;-58
2022/06/03 10:21:17;;;;;;;3.42;2.30;;;16.00;59.50;;;;;;5089032;28;20191;-58
2022/06/03 10:23:56;;;;;;;3.25;2.33;;;15.90;59.40;;;;;;5089013;28;20194;-57
2022/06/03 10:26:30;;;;;;;3.35;2.42;;;15.90;59.40;;;;;;5089112;28;20588;-57
2022/06/03 10:29:07;;;;;;;3.88;2.50;;;15.90;59.40;;;;;;5088235;28;20202;-57
2022/06/03 10:31:38;;;;;;;5.32;3.20;;;15.90;59.30;;;;;;5088765;28;20221;-57
2022/06/03 10:34:14;;;;;;;4.15;2.78;;;15.90;59.40;;;;;;5088809;28;20245;-57
2022/06/03 10:36:48;;;;;;;5.28;2.80;;;15.80;59.60;;;;;;5089074;28;20217;-56
2022/06/03 10:39:20;;;;;;;5.60;2.97;;;15.80;59.70;;;;;;5088533;28;20256;-56
2022/06/03 10:41:54;;;;;;;5.15;2.60;;;15.80;59.70;;;;;;5087965;28;20201;-57
2022/06/03 10:44:27;;;;;;;4.97;2.85;;;15.80;59.70;;;;;;5085601;28;20200;-57
2022/06/03 10:47:02;;;;;;;2.85;2.28;;;15.80;59.60;;;;;;5088265;28;20218;-57
2022/06/03 10:49:34;;;;;;;4.38;2.65;;;15.80;59.60;;;;;;5089012;28;20212;-58
2022/06/03 11:03:30;;;;;;;3.35;2.42;;;15.70;59.20;;;;;;5083501;28;20190;-57
2022/06/03 11:06:08;;;;;;;4.78;2.60;;;15.70;59.20;;;;;;5088944;28;20216;-58
2022/06/03 11:08:53;;;;;;;4.65;2.50;;;15.70;59.20;;;;;;5087822;28;20198;-57
2022/06/03 11:11:41;;;;;;;3.17;2.63;;;15.70;59.20;;;;;;5088842;28;20190;-56
2022/06/03 11:14:36;;;;;;;3.13;2.38;;;15.70;59.10;;;;;;5088435;28;20770;-56
2022/06/03 11:17:11;;;;;;;3.85;2.63;;;15.60;59.00;;;;;;5087797;28;20221;-56
2022/06/03 11:19:45;;;;;;;2.63;2.20;;;15.60;59.00;;;;;;5088240;28;20197;-57
2022/06/03 11:22:23;;;;;;;2.78;2.38;;;15.60;59.00;;;;;;5088428;28;20198;-56
2022/06/03 11:24:57;;;;;;;3.30;2.42;;;15.60;59.00;;;;;;5087350;28;20685;-57
2022/06/03 11:27:32;;;;;;;3.00;2.05;;;15.60;59.00;;;;;;5082697;28;20215;-57
2022/06/03 11:30:15;;;;;;;3.65;2.50;;;15.60;59.00;;;;;;5087576;28;20193;-57
2022/06/03 11:32:49;;;;;;;4.65;2.75;;;15.50;58.90;;;;;;5087982;28;20201;-56
2022/06/03 11:35:27;;;;;;;3.17;2.38;;;15.50;58.90;;;;;;5087701;28;20193;-57
2022/06/03 11:38:00;;;;;;;3.42;2.38;;;15.50;58.90;;;;;;5087238;28;20252;-58
2022/06/03 11:40:36;;;;;;;4.22;2.35;;;15.50;58.90;;;;;;5087929;28;20190;-57
2022/06/03 11:43:10;;;;;;;3.22;2.08;;;15.50;58.90;;;;;;5087896;28;20189;-56
2022/06/03 11:45:47;;;;;;;4.15;2.70;;;15.50;58.90;;;;;;5082372;28;20195;-55
2022/06/03 11:48:25;;;;;;;2.78;2.15;;;15.50;58.80;;;;;;5071371;28;20316;-57
2022/06/03 11:50:57;;;;;;;3.03;2.30;;;15.50;58.80;;;;;;5070350;28;20240;-58
2022/06/03 11:53:31;;;;;;;3.28;2.08;;;15.50;58.80;;;;;;5069402;28;20194;-58
2022/06/03 11:56:05;;;;;;;3.35;2.10;;;15.50;58.80;;;;;;5069227;28;20220;-56
2022/06/03 11:58:58;;;;;;;3.78;1.95;;;15.40;58.70;;;;;;5069369;28;20254;-58
2022/06/03 12:01:41;;;;;;;2.00;1.80;;;15.40;58.70;;;;;;5069007;28;20206;-57
2022/06/03 12:04:22;;;;;;;4.80;2.25;;;15.40;58.70;;;;;;5069349;28;20199;-57
2022/06/03 12:07:05;;;;;;;3.13;2.00;;;15.40;58.70;;;;;;5069523;28;20224;-58
2022/06/03 12:09:45;;;;;;;3.85;2.20;;;15.40;58.70;;;;;;5069380;28;20842;-57
2022/06/03 12:15:43;;;;;;;3.65;2.50;;;15.40;58.70;;;;;;5069674;28;20832;-57
2022/06/03 12:18:57;;;;;;;3.13;1.92;;;15.30;58.60;;;;;;5072071;28;20640;-57
2022/06/03 12:22:17;;;;;;;3.33;1.98;;;15.30;58.60;;;;;;5073150;28;20225;-58
2022/06/03 12:24:54;;;;;;;3.10;2.25;;;15.30;58.60;;;;;;5072805;28;20206;-55
2022/06/03 12:27:31;;;;;;;2.35;2.10;;;15.30;58.60;;;;;;5072768;28;20301;-57
2022/06/03 12:30:29;;;;;;;3.58;2.17;;;15.30;58.50;;;;;;5072728;28;20678;-56
2022/06/03 12:33:02;;;;;;;2.42;2.03;;;15.30;58.60;;;;;;5072519;28;20582;-56
2022/06/03 12:35:57;;;;;;;3.97;1.90;;;15.30;58.60;;;;;;5078043;28;20186;-56
2022/06/03 12:38:55;;;;;;;2.67;1.95;;;15.20;58.60;;;;;;5092850;28;20715;-57
2022/06/03 12:42:01;;;;;;;2.42;2.05;;;15.20;58.50;;;;;;5092930;28;20213;-55
2022/06/03 12:44:49;;;;;;;2.35;1.85;;;15.20;58.50;;;;;;5092923;28;20198;-57
2022/06/03 12:47:47;;;;;;;2.05;1.75;;;15.20;58.60;;;;;;5092247;28;20224;-55
2022/06/03 12:50:37;;;;;;;2.50;1.90;;;15.10;58.50;;;;;;5092676;28;20201;-57
2022/06/03 12:53:37;;;;;;;1.85;1.58;;;15.20;58.50;;;;;;5092351;28;20202;-56
2022/06/03 12:56:27;;;;;;;3.03;1.70;;;15.20;58.60;;;;;;5092418;28;20222;-58
2022/06/03 12:59:04;;;;;;;2.78;1.77;;;15.10;58.50;;;;;;5090576;28;20245;-56
2022/06/03 13:02:00;;;;;;;2.97;2.00;;;15.10;58.50;;;;;;5084687;28;20194;-57
2022/06/03 13:04:49;;;;;;;2.67;1.90;;;15.10;58.50;;;;;;5072748;28;20194;-57
2022/06/03 13:07:41;;;;;;;2.05;1.67;;;15.10;58.50;;;;;;5072359;28;20612;-57
2022/06/03 13:10:26;;;;;;;2.75;1.83;;;15.10;58.50;;;;;;5072052;28;20292;-57
2022/06/03 13:13:00;;;;;;;2.10;1.90;;;15.00;58.40;;;;;;5071746;28;20537;-58
2022/06/03 13:15:52;;;;;;;3.38;1.85;;;15.10;58.40;;;;;;5072083;28;20362;-57
2022/06/03 13:18:41;;;;;;;2.58;1.70;;;15.00;58.40;;;;;;5072239;28;20710;-56
2022/06/03 13:21:25;;;;;;;2.95;2.08;;;15.00;58.50;;;;;;5072028;28;20201;-56
2022/06/03 13:24:23;;;;;;;1.80;1.55;;;15.00;58.40;;;;;;5071690;28;20191;-58
2022/06/03 13:27:14;;;;;;;2.13;1.60;;;15.00;58.40;;;;;;5071237;28;20254;-55
2022/06/03 13:30:14;;;;;;;2.10;1.60;;;14.90;58.40;;;;;;5070908;28;20217;-57
2022/06/03 13:33:00;;;;;;;2.92;1.70;;;14.90;58.40;;;;;;5086722;28;20198;-55
2022/06/03 13:35:33;;;;;;;2.47;1.60;;;14.90;58.40;;;;;;5091438;28;20229;-56
2022/06/03 13:38:27;;;;;;;2.20;2.00;;;14.90;58.40;;;;;;5091362;28;20583;-54
2022/06/03 13:44:12;;;;;;;1.90;1.50;;;14.90;58.40;;;;;;5091881;28;20255;-57
2022/06/03 13:46:44;;;;;;;1.52;1.17;;;14.90;58.30;;;;;;5084592;28;20221;-55
2022/06/03 13:49:25;;;;;;;2.38;1.73;;;14.90;58.40;;;;;;5071350;28;20565;-55
2022/06/03 13:52:04;;;;;;;3.55;1.70;;;14.80;58.30;;;;;;5071116;28;20256;-56
2022/06/03 13:54:41;;;;;;;1.90;1.50;;;14.90;58.30;;;;;;5073389;28;20670;-54
2022/06/03 13:57:23;;;;;;;2.83;1.73;;;14.80;58.30;;;;;;5071023;28;20580;-55
2022/06/03 14:00:23;;;;;;;1.80;1.27;;;14.80;58.30;;;;;;5070845;28;20226;-55
2022/06/03 14:02:57;;;;;;;1.65;1.40;;;14.80;58.30;;;;;;5084558;28;20276;-55
2022/06/03 14:05:40;;;;;;;2.10;1.63;;;14.80;58.30;;;;;;5091939;28;20201;-56
2022/06/03 14:08:18;;;;;;;2.38;1.80;;;14.80;58.30;;;;;;5091249;28;20197;-55
2022/06/03 14:10:52;;;;;;;3.17;1.63;;;14.80;58.30;;;;;;5091148;28;20198;-56
2022/06/03 14:13:32;;;;;;;2.17;1.65;;;14.80;58.30;;;;;;5090777;28;20278;-56
2022/06/03 14:16:09;;;;;;;2.70;1.83;;;14.70;58.20;;;;;;5090641;28;20225;-56
2022/06/03 14:18:52;;;;;;;1.95;1.30;;;14.70;58.30;;;;;;5090776;28;20765;-56
2022/06/03 14:21:32;;;;;;;2.60;1.63;;;14.70;58.20;;;;;;5090743;28;20198;-57
2022/06/03 14:24:08;;;;;;;2.03;1.60;;;14.70;58.20;;;;;;5090932;28;20197;-56
2022/06/03 14:26:46;;;;;;;1.92;1.45;;;14.70;58.20;;;;;;5090955;28;20217;-57
2022/06/03 14:29:23;;;;;;;2.92;1.58;;;14.70;58.20;;;;;;5090902;28;20201;-57
2022/06/03 14:31:58;;;;;;;1.75;1.50;;;14.70;58.20;;;;;;5085118;28;20195;-56
2022/06/03 14:34:33;;;;;;;2.03;1.42;;;14.70;58.20;;;;;;5072706;28;20194;-55
2022/06/03 14:37:07;;;;;;;2.17;1.52;;;14.70;58.20;;;;;;5090613;28;20214;-56
2022/06/03 14:39:40;;;;;;;3.28;1.92;;;14.70;58.20;;;;;;5090485;28;20226;-56
2022/06/03 14:42:14;;;;;;;3.10;1.73;;;14.60;58.20;;;;;;5089936;28;20193;-57
2022/06/03 14:44:47;;;;;;;3.85;1.77;;;14.60;58.20;;;;;;5090557;28;20198;-57
2022/06/03 14:47:30;;;;;;;1.80;1.25;;;14.60;58.20;;;;;;5089634;28;20571;-57
2022/06/03 14:50:04;;;;;;;1.73;1.45;;;14.60;58.20;;;;;;5087426;28;20194;-57
2022/06/03 14:52:39;;;;;;;2.05;1.50;;;14.60;58.20;;;;;;5090864;28;20204;-58
2022/06/03 14:55:15;;;;;;;1.60;1.35;;;14.60;58.10;;;;;;5090492;28;20193;-56
2022/06/03 14:57:51;;;;;;;1.95;1.33;;;14.60;58.20;;;;;;5090454;28;20214;-57
2022/06/03 15:00:37;;;;;;;2.42;1.45;;;14.60;58.20;;;;;;5090419;28;20221;-55
2022/06/03 15:03:16;;;;;;;3.67;1.45;;;14.50;58.20;;;;;;5075898;28;20198;-56
2022/06/03 15:05:55;;;;;;;2.40;1.45;;;14.50;58.20;;;;;;5070752;28;20220;-56